首页
METAR-TAF:

METAR-TAF

机场 :

巴兰基亚, 哥伦比亚

纬度: 10-53N, 经度: 074-47W, 海拔: 14米

当前天气观测

该预报发布于32分钟前的00:00 UTC
风速12节,风向,有时为22节阵风,在北转西北北转东北之间变化
温度 26°C
湿度 79%
气压 1007 hPa
能見度: 7000
少量云层高于2000英尺
多云层高于20000英尺

METAR: SKBQ 190000Z 01012G22KT 330V030 7000 FEW020 BKN200 26/22 A2974 WS ALL RWY RMK HZ

时间: 19:32 (00:32 UTC)

预报

该预报发布于1小时和32分钟前的23:00 UTC
预报有效从19日的 00点(UTC)到 19日的 24点(UTC)
风速16节,风向
能见度10公里或以上
少量云层高于2000英尺
短暂存在
从 19日的 10点(UTC)到 19日的 13点(UTC)
风速4节,风向
能見度: 4000
多云层高于1000英尺
轻雾

TAF: SKBQ 182300Z 1900/1924 01016KT 9999 FEW020 TEMPO 1910/1913 01004KT 4000 BR BKN010 TX33/1917Z TN24/1911Z

超过4000个机场的气象观测和天气预报(METAR&TAF报告)。

可查询的气象台以黄色和红色小点在地图上表示。

将鼠标移到小点上方,可查看气象台名称。

然后点击查看天气观测和预报。

如需切换地图:点击带黑十字的绿色按钮放大地图;点击带横线的绿色按钮缩小地图;或者点击绿色箭头查看邻近地区的地图。


METAR-TAF: